Terminal Aerodrome Forecast
Issued by NWS Wilmington, OH

Current Version | Previous Version | Text Only | Print | Product List | Glossary Off
Versions: 1 2 3 4 5 6 7 8 9 10 11 12 13 14 15 16 17 18 19 20

000
FTUS41 KILN 230200 AAA
TAFCMH
TAF AMD
KCMH 230216Z 2302/2324 01005KT P6SM SCT025 OVC035
     FM231000 02004KT P6SM SCT025
     FM231300 33005KT P6SM SCT250
     FM232300 VRB03KT P6SM SCT250=

USA.gov is the U.S. government's official web portal to all federal, state and local government web resources and services.